Terminal Aerodrome Forecast
Issued by NWS

Home | Current Version | Previous Version | Text Only | Print | Product List | Glossary On
Versions: 1 2 3 4 5 6 7 8 9 10 11 12 13 14 15 16 17 18 19 20 21 22 23 24 25 26 27 28 29 30 31 32 33 34 35
000
FTUS41 KBOX 302323
TAFHYA
TAF
KHYA 302323Z 3100/3124 22014KT P6SM SKC
     FM310300 21013KT P6SM BKN001
     FM310900 22012G20KT 1/2SM FG OVC001
     FM311300 22013KT 3SM BR BKN003
     FM312000 21008KT 3SM BR BKN008
     FM312200 25007KT 3SM BR BKN008=

USA.gov is the U.S. government's official web portal to all federal, state and local government web resources and services.